Flight Track Log - Related Links

Times and Time Zones

All times are in EDT time to prevent confusion due to time zone crossing. See the UAL4431 flight status page for this flight to view local times or setup timezone preferences in your user account.

Time Position Orientation Groundspeed Altitude Reporting Facility
EDT Latitude Longitude Course Direction KTS km/h feet Rate Location/Type
Fri 15:42:49 29.9597 -95.3439 90° East 147 272 700  Level Houston Center
Fri 15:43:33 29.9475 -95.3042 110° East 193 357 2.600 2.341 Climbing Houston Center
Fri 15:44:11 29.9444 -95.2725 96° East 186 344 3.900 1.475 Climbing Houston Center
Fri 15:44:34 29.9411 -95.2350 96° East 238 441 4.100 194 Climbing Houston Center
Fri 15:45:13 29.9389 -95.1925 93° East 225 417 4.100  Level Houston Center
Fri 15:45:35 29.9350 -95.1442 95° East 264 489 4.100 1.355 Level Houston Center
Fri 15:46:00 29.9834 -94.8983 90° East  Level FlightAware Approximate
Fri 15:46:15 29.9350 -95.1069 90° East 256 475 5.500  Level Houston Center
Fri 15:46:37 29.9394 -95.0569 84° East 273 505 7.000 2.903 Climbing Houston Center
Fri 15:47:00 29.9834 -94.7895 90° East  Level FlightAware Approximate
Fri 15:47:17 29.9447 -95.0003 84° East 275 509 8.500  Level Houston Center
Fri 15:47:38 29.9453 -94.9644 89° East 297 550 9.200 2.129 Climbing Houston Center
Fri 15:48:00 29.9833 -94.6807 90° East  Level FlightAware Approximate
Fri 15:48:19 29.9514 -94.9036 83° East 294 544 10.700  Level Houston Center
Fri 15:48:39 29.9528 -94.8647 88° East 318 589 11.000 1.161 Climbing Houston Center
Fri 15:49:21 29.9592 -94.7944 84° East 332 615 11.900 1.377 Climbing Houston Center
Fri 15:49:40 29.9622 -94.7453 86° East 365 676 12.400 1.429 Climbing Houston Center
Fri 15:50:24 29.9681 -94.6775 84° East 361 668 13.400 1.415 Climbing Houston Center
Fri 15:51:26 29.9769 -94.5561 85° East 376 697 14.900 1.500 Climbing Houston Center
Fri 15:52:28 29.9881 -94.4197 85° East 378 700 16.500 1.355 Climbing Houston Center
Fri 15:53:30 29.9961 -94.2978 86° East 382 708 17.700 1.113 Climbing Houston Center
Fri 15:54:32 30.0119 -94.1753 81° East 387 716 18.800 629 Climbing Houston Center
Fri 15:55:34 30.0289 -94.0444 81° East 408 756 19.000 97 Climbing Houston Center
Fri 15:56:36 30.0489 -93.8800 82° East 430 797 19.000  Level Houston Center
Fri 15:57:38 30.0661 -93.7433 82° East 432 800 19.000  Level Houston Center
Fri 15:58:41 30.0817 -93.6081 82° East 431 798 19.000  Level Houston Center
Fri 15:59:43 30.0967 -93.4764 82° East 423 784 19.000  Level Houston Center
Fri 16:00:45 30.1119 -93.3453 82° East 419 776 19.000  Level Houston Center
Fri 16:01:47 30.1306 -93.1875 82° East 418 774 19.000 -581 Level Houston Center
Fri 16:02:49 30.1433 -93.0564 84° East 417 772 17.800 -1.500 Descending Houston Center
Fri 16:03:51 30.1506 -92.9264 86° East 408 756 15.900 -1.935 Descending Houston Center
Fri 16:04:53 30.1558 -92.8014 87° East 394 729 13.800 -1.984 Descending Houston Center
Fri 16:05:55 30.1622 -92.6775 87° East 389 721 11.800 -1.839 Descending Houston Center
Fri 16:06:57 30.1700 -92.5369 86° East 367 679 10.000 -1.488 Descending Houston Center
Fri 16:08:00 30.1731 -92.4386 88° East 319 591 8.700 -1.440 Descending Houston Center
Fri 16:09:02 30.1778 -92.3483 87° East 294 544 7.000 -1.597 Descending Houston Center
Fri 16:10:04 30.2081 -92.2661 67° East 283 525 5.400 -1.452 Descending Houston Center
Fri 16:11:06 30.2489 -92.1925 57° Northeast 275 509 4.000 -1.306 Descending Houston Center
Fri 16:12:08 30.2892 -92.1167 58° Northeast 265 491 2.700 -1.258 Descending Houston Center

Login

Don't have an account? Register now (free) for customized features, flight alerts, and more!